Time;durP1;ratioP1;P1;durP2;ratioP2;P2;SDS_P1;SDS_P2;PMS_P1;PMS_P2;Temp;Humidity;BMP_temperature;BMP_pressure;BME280_temperature;BME280_humidity;BME280_pressure;Samples;Min_cycle;Max_cycle;Signal;HPM_P1;HPM_P2
2023/04/05 00:05:44;;;;;;;99.50;27.40;;;;;;;1.92;54.26;101011.95;671493;1259;138918;-87
2023/04/05 00:20:49;;;;;;;40.20;16.40;;;;;;;2.11;54.96;100997.21;670147;1259;138079;-88
2023/04/05 00:35:53;;;;;;;33.90;13.70;;;;;;;2.22;54.94;100983.44;671627;1271;137936;-87
2023/04/05 00:50:57;;;;;;;30.30;11.00;;;;;;;2.45;55.60;100982.12;673914;1260;138669;-89
2023/04/05 01:06:08;;;;;;;22.20;10.20;;;;;;;2.67;56.05;100978.93;672963;1260;138115;-88
2023/04/05 01:21:33;;;;;;;21.00;10.00;;;;;;;2.79;56.35;100968.56;671728;1262;139220;-89
2023/04/05 01:36:41;;;;;;;20.80;8.00;;;;;;;2.94;56.75;100957.54;671779;1262;139235;-88
2023/04/05 01:51:44;;;;;;;17.30;8.50;;;;;;;3.07;57.37;100955.73;673109;1257;139435;-89
2023/04/05 02:06:47;;;;;;;23.60;9.20;;;;;;;3.19;57.32;100954.15;671610;1275;138603;-89
2023/04/05 02:21:55;;;;;;;81.10;26.10;;;;;;;3.38;57.25;100944.45;671967;1262;141924;-88
2023/04/05 02:36:58;;;;;;;29.00;12.70;;;;;;;3.42;57.47;100932.48;672291;1266;139353;-89
2023/04/05 02:52:01;;;;;;;24.30;11.90;;;;;;;3.58;57.91;100931.06;673757;1262;139744;-89
2023/04/05 03:07:06;;;;;;;21.50;11.20;;;;;;;3.73;57.79;100930.31;672001;1262;138880;-89
2023/04/05 03:22:12;;;;;;;29.90;12.70;;;;;;;3.68;57.89;100927.43;671715;1262;138700;-90
2023/04/05 03:37:16;;;;;;;17.30;9.10;;;;;;;3.76;58.16;100928.43;672912;1263;201323;-89
2023/04/05 03:52:24;;;;;;;25.80;13.10;;;;;;;3.74;58.30;100922.11;671145;1263;138232;-90
2023/04/05 04:07:27;;;;;;;20.60;10.00;;;;;;;3.73;58.74;100913.89;673318;1263;139288;-90
2023/04/05 04:22:37;;;;;;;20.80;8.70;;;;;;;3.78;58.75;100917.27;672188;1273;139700;-90
2023/04/05 04:37:57;;;;;;;31.60;13.60;;;;;;;3.75;58.80;100930.58;674983;1263;140158;-91
2023/04/05 04:53:35;;;;;;;28.50;12.20;;;;;;;3.78;59.11;100934.23;671267;1263;138548;-90
2023/04/05 05:08:39;;;;;;;304.80;111.60;;;;;;;3.83;59.33;100933.29;673107;1262;139774;-89
2023/04/05 05:23:42;;;;;;;42.60;17.40;;;;;;;3.92;59.62;100936.34;673014;1272;138875;-89
2023/04/05 05:38:46;;;;;;;38.00;17.50;;;;;;;3.77;60.10;100934.60;674911;1263;138723;-89
2023/04/05 05:53:50;;;;;;;34.90;16.10;;;;;;;3.71;60.79;100938.55;674020;1263;138154;-89
2023/04/05 06:08:53;;;;;;;29.60;12.50;;;;;;;4.11;60.31;100937.80;671734;1261;139297;-89
2023/04/05 06:23:56;;;;;;;39.70;16.70;;;;;;;4.58;59.58;100940.59;672590;1261;139476;-89
2023/04/05 06:38:59;;;;;;;49.70;23.50;;;;;;;4.72;59.53;100941.27;673101;1263;139664;-89
2023/04/05 06:54:03;;;;;;;64.50;26.10;;;;;;;5.04;59.17;100943.48;673669;1262;138151;-88
2023/04/05 07:09:06;;;;;;;27.70;12.20;;;;;;;5.33;58.50;100953.41;675101;1263;138921;-89
2023/04/05 07:24:09;;;;;;;39.40;20.90;;;;;;;5.35;58.28;100950.69;675369;1262;138998;-88
2023/04/05 07:39:12;;;;;;;28.20;13.20;;;;;;;5.77;57.55;100949.90;672430;1263;139086;-91
2023/04/05 07:54:15;;;;;;;16.50;7.10;;;;;;;6.25;56.72;100950.25;674005;1272;138458;-87
2023/04/05 08:09:19;;;;;;;25.60;13.60;;;;;;;6.77;55.50;100951.85;673984;1270;139324;-87
2023/04/05 08:24:22;;;;;;;8.00;3.70;;;;;;;7.34;53.17;100946.88;674164;1263;138613;-85
2023/04/05 08:39:26;;;;;;;13.20;4.80;;;;;;;8.89;51.57;100941.64;677564;1261;137539;-87
2023/04/05 08:54:29;;;;;;;19.20;8.00;;;;;;;9.56;48.10;100945.40;673712;1263;139002;-87
2023/04/05 09:09:35;;;;;;;72.80;37.60;;;;;;;9.28;47.25;100941.39;670071;1272;137961;-89
2023/04/05 09:24:41;;;;;;;8.10;3.70;;;;;;;8.75;45.01;100942.30;673281;1263;138569;-88
2023/04/05 09:39:48;;;;;;;16.30;5.50;;;;;;;8.70;45.46;100946.48;672818;1264;137859;-87
2023/04/05 09:54:56;;;;;;;7.70;3.60;;;;;;;9.21;45.56;100952.45;673087;1261;139239;-88
2023/04/05 10:10:00;;;;;;;12.10;5.80;;;;;;;9.50;43.99;100955.70;675229;1270;137774;-87
2023/04/05 10:25:09;;;;;;;17.00;7.50;;;;;;;9.71;44.28;100952.88;670975;1263;137785;-89
2023/04/05 10:40:13;;;;;;;48.10;18.40;;;;;;;9.55;43.81;100963.14;675800;1257;138718;-88
2023/04/05 10:55:16;;;;;;;112.30;39.50;;;;;;;9.55;44.32;100962.45;676093;1260;138232;-86
2023/04/05 11:10:20;;;;;;;28.50;13.00;;;;;;;9.53;44.16;100958.07;672715;1261;138183;-87
2023/04/05 11:25:24;;;;;;;7.50;4.20;;;;;;;9.67;43.41;100950.08;675749;1260;140266;-87
2023/04/05 11:40:33;;;;;;;97.40;31.00;;;;;;;10.05;43.79;100948.10;675774;1270;138471;-86
2023/04/05 11:55:37;;;;;;;;;;;;;;;10.18;43.69;100955.55;673435;1260;138434;-86
2023/04/05 12:10:42;;;;;;;26.00;7.50;;;;;;;10.09;43.79;100961.96;671560;1273;125798;-86
2023/04/05 12:25:49;;;;;;;9.00;4.90;;;;;;;9.94;43.77;100955.77;669853;1258;139659;-86
2023/04/05 12:40:53;;;;;;;8.20;3.70;;;;;;;9.83;43.96;100949.38;672772;1262;139072;-85
2023/04/05 12:55:57;;;;;;;119.70;49.40;;;;;;;9.92;44.37;100943.85;674004;1257;137128;-84
2023/04/05 13:11:00;;;;;;;71.80;30.10;;;;;;;9.91;44.24;100942.33;672109;1261;138753;-86
2023/04/05 13:26:05;;;;;;;9.90;3.40;;;;;;;9.74;44.98;100947.13;673296;1262;138077;-84
2023/04/05 13:41:08;;;;;;;18.70;7.50;;;;;;;9.70;44.62;100946.19;673051;1262;137682;-84
2023/04/05 13:56:11;;;;;;;39.40;15.80;;;;;;;9.65;45.06;100950.73;673978;1256;138211;-84
2023/04/05 14:11:14;;;;;;;8.10;3.20;;;;;;;9.59;45.06;100963.08;670961;1256;138357;-83
2023/04/05 14:26:18;;;;;;;49.10;16.90;;;;;;;9.57;45.15;100963.04;673943;1262;137140;-83
2023/04/05 14:41:21;;;;;;;24.20;10.30;;;;;;;9.29;45.27;100968.65;673607;1259;141274;-83
2023/04/05 14:56:25;;;;;;;309.10;84.20;;;;;;;9.16;45.44;100974.48;673593;1260;138662;-83
2023/04/05 15:11:28;;;;;;;74.10;27.60;;;;;;;9.11;45.18;100979.73;673837;1260;138986;-85
2023/04/05 15:26:32;;;;;;;35.20;13.30;;;;;;;9.09;45.13;100977.10;672349;1263;137473;-83
2023/04/05 15:41:36;;;;;;;25.20;11.50;;;;;;;8.99;44.96;100983.39;673011;1261;167732;-84
2023/04/05 15:56:39;;;;;;;42.20;19.10;;;;;;;8.86;44.79;100991.77;672629;1260;138078;-84
2023/04/05 16:11:42;;;;;;;27.00;11.80;;;;;;;8.75;44.89;100996.90;673038;1276;139070;-84
2023/04/05 16:26:46;;;;;;;55.10;22.40;;;;;;;8.66;45.16;101000.84;673669;1272;138338;-83
2023/04/05 16:41:49;;;;;;;59.40;22.20;;;;;;;8.36;44.93;101005.92;674636;1261;138537;-83
2023/04/05 16:56:53;;;;;;;117.90;43.10;;;;;;;8.27;45.33;101015.58;672106;1260;139130;-81
2023/04/05 17:11:56;;;;;;;121.60;44.60;;;;;;;8.09;45.74;101020.63;672568;1260;139021;-83
2023/04/05 17:27:01;;;;;;;182.30;63.10;;;;;;;7.92;46.23;101023.27;675281;1259;138962;-81
2023/04/05 17:42:05;;;;;;;144.00;53.40;;;;;;;7.80;46.66;101035.91;674418;1260;138095;-82
2023/04/05 18:00:43;;;;;;;655.30;271.30;;;;;;;7.62;47.13;101045.08;661399;1282;544905;-83
2023/04/05 18:15:51;;;;;;;124.30;47.50;;;;;;;7.48;47.39;101055.31;670494;1274;138640;-83
2023/04/05 18:30:55;;;;;;;79.80;35.20;;;;;;;7.46;47.81;101065.67;674321;1260;138106;-83
2023/04/05 18:45:59;;;;;;;25.50;12.30;;;;;;;7.40;48.56;101068.50;674344;1263;138802;-83
2023/04/05 19:01:04;;;;;;;55.10;26.00;;;;;;;7.35;49.06;101073.89;673482;1263;138572;-82
2023/04/05 19:16:08;;;;;;;81.50;34.80;;;;;;;7.31;49.14;101084.75;682323;1263;137426;-83
2023/04/05 19:31:15;;;;;;;48.10;22.60;;;;;;;7.22;49.66;101086.33;682255;1263;138647;-83
2023/04/05 19:46:18;;;;;;;103.00;38.60;;;;;;;7.14;48.97;101092.93;682419;1265;138956;-83
2023/04/05 20:01:40;;;;;;;92.30;45.10;;;;;;;7.12;48.83;101096.16;682794;1261;137947;-83
2023/04/05 20:16:44;;;;;;;29.90;14.60;;;;;;;7.08;49.84;101098.51;682802;1262;137272;-82
2023/04/05 20:31:48;;;;;;;67.30;26.00;;;;;;;7.07;50.63;101092.25;682829;1259;138476;-83
2023/04/05 20:46:56;;;;;;;38.20;17.90;;;;;;;6.99;51.16;101090.84;682959;1261;137849;-84
2023/04/05 21:02:03;;;;;;;33.80;15.60;;;;;;;6.83;51.72;101088.83;682911;1262;137886;-81
2023/04/05 21:17:06;;;;;;;40.10;16.50;;;;;;;6.79;51.52;101084.58;682986;1261;138343;-82
2023/04/05 21:32:10;;;;;;;22.70;11.90;;;;;;;6.81;51.33;101084.95;682923;1262;139598;-82
2023/04/05 21:47:13;;;;;;;30.60;18.90;;;;;;;6.81;51.59;101082.68;683092;1262;137717;-82
2023/04/05 22:02:16;;;;;;;17.30;9.70;;;;;;;6.79;52.13;101081.77;682901;1262;138238;-82
2023/04/05 22:17:19;;;;;;;16.70;8.30;;;;;;;6.79;52.37;101081.09;682988;1263;137834;-82
2023/04/05 22:32:23;;;;;;;20.40;9.80;;;;;;;6.74;53.07;101085.38;682788;1262;138988;-82
2023/04/05 22:47:26;;;;;;;20.10;10.10;;;;;;;6.72;53.26;101092.48;683019;1263;138299;-82
2023/04/05 23:02:29;;;;;;;17.20;8.50;;;;;;;6.62;54.31;101093.58;682674;1263;137442;-83
2023/04/05 23:17:32;;;;;;;19.60;9.30;;;;;;;6.55;54.63;101089.27;682749;1263;137716;-82
2023/04/05 23:32:35;;;;;;;18.80;8.70;;;;;;;6.56;54.94;101089.02;682757;1263;137743;-82
2023/04/05 23:47:39;;;;;;;70.10;26.00;;;;;;;6.57;55.16;101086.41;682984;1263;138871;-82
